createdAt,value
2018-07-24T00:00:39.059Z,1009.32
2018-07-24T00:01:39.132Z,1009.24
2018-07-24T00:02:39.035Z,1009.24
2018-07-24T00:03:40.065Z,1009.23
2018-07-24T00:04:38.987Z,1009.22
2018-07-24T00:05:39.056Z,1009.25
2018-07-24T00:06:38.935Z,1009.24
2018-07-24T00:07:43.780Z,1009.22
2018-07-24T00:08:38.918Z,1009.25
2018-07-24T00:09:38.975Z,1009.26
2018-07-24T00:10:40.002Z,1009.25
2018-07-24T00:11:40.016Z,1009.23
2018-07-24T00:12:39.940Z,1009.23
2018-07-24T00:13:40.022Z,1009.24
2018-07-24T00:14:39.907Z,1009.23
2018-07-24T00:15:39.936Z,1009.22
2018-07-24T00:16:39.850Z,1009.18
2018-07-24T00:17:39.873Z,1009.21
2018-07-24T00:18:39.829Z,1009.22
2018-07-24T00:19:40.896Z,1009.21
2018-07-24T00:20:39.770Z,1009.21
2018-07-24T00:21:44.688Z,1009.20
2018-07-24T00:22:39.738Z,1009.23
2018-07-24T00:23:39.792Z,1009.21
2018-07-24T00:24:39.678Z,1009.17
2018-07-24T00:25:39.701Z,1009.19
2018-07-24T00:26:39.643Z,1009.18
2018-07-24T00:27:39.705Z,1009.18
2018-07-24T00:28:39.601Z,1009.15
2018-07-24T00:29:39.613Z,1009.15
2018-07-24T00:30:39.571Z,1009.13
2018-07-24T00:31:39.629Z,1009.12
2018-07-24T00:32:39.507Z,1009.14
2018-07-24T00:33:39.544Z,1009.11
2018-07-24T00:34:39.481Z,1009.13
2018-07-24T00:35:41.507Z,1009.11
2018-07-24T00:36:39.422Z,1009.11
2018-07-24T00:37:40.487Z,1009.08
2018-07-24T00:38:39.383Z,1009.10
2018-07-24T00:39:39.500Z,1009.08
2018-07-24T00:40:39.354Z,1009.05
2018-07-24T00:41:39.386Z,1009.03
2018-07-24T00:42:39.303Z,1009.07
2018-07-24T00:43:39.304Z,1009.05
2018-07-24T00:44:39.276Z,1009.07
2018-07-24T00:45:39.305Z,1009.04
2018-07-24T00:46:39.216Z,1009.01
2018-07-24T00:47:39.291Z,1009.03
2018-07-24T00:48:39.181Z,1009.04
2018-07-24T00:49:39.232Z,1009.02
2018-07-24T00:50:39.127Z,1009.03
2018-07-24T00:51:39.138Z,1009.00
2018-07-24T00:52:39.096Z,1009.03
2018-07-24T00:53:39.160Z,1008.97
2018-07-24T00:54:39.066Z,1008.96
2018-07-24T00:55:39.069Z,1008.99
2018-07-24T00:56:25.708Z,1008.97
2018-07-24T00:57:25.678Z,1008.96
2018-07-24T00:58:25.586Z,1008.96
2018-07-24T00:59:25.588Z,1008.98
2018-07-24T01:00:25.550Z,1009.00
2018-07-24T01:01:25.597Z,1009.00
2018-07-24T01:02:25.502Z,1009.03
2018-07-24T01:03:25.484Z,1008.99
2018-07-24T01:04:25.510Z,1008.99
2018-07-24T01:05:25.437Z,1008.97
2018-07-24T01:06:25.522Z,1008.98
2018-07-24T01:07:25.389Z,1008.93
2018-07-24T01:08:25.479Z,1008.94
2018-07-24T01:09:11.415Z,1008.91
2018-07-24T01:10:11.441Z,1008.91
2018-07-24T01:11:11.369Z,1008.95
2018-07-24T01:12:11.328Z,1008.96
2018-07-24T01:13:11.295Z,1008.93
2018-07-24T01:14:11.339Z,1008.95
2018-07-24T01:15:11.253Z,1008.98
2018-07-24T01:16:11.249Z,1009.00
2018-07-24T01:17:11.220Z,1008.98
2018-07-24T01:18:11.261Z,1008.93
2018-07-24T01:19:11.165Z,1008.98
2018-07-24T01:20:11.185Z,1008.96
2018-07-24T01:21:11.129Z,1008.99
2018-07-24T01:22:11.194Z,1008.98
2018-07-24T01:23:11.088Z,1008.96
2018-07-24T01:24:11.105Z,1008.98
2018-07-24T01:25:11.052Z,1008.97
2018-07-24T01:26:11.143Z,1008.98
2018-07-24T01:27:11.005Z,1008.96
2018-07-24T01:28:11.005Z,1008.99
2018-07-24T01:29:10.957Z,1008.99
2018-07-24T01:30:10.946Z,1008.97
2018-07-24T01:31:10.908Z,1008.92
2018-07-24T01:32:10.887Z,1008.91
2018-07-24T01:33:10.866Z,1008.91
2018-07-24T01:34:10.849Z,1008.90
2018-07-24T01:35:10.838Z,1008.92
2018-07-24T01:36:10.806Z,1008.92
2018-07-24T01:37:10.786Z,1009.00
2018-07-24T01:38:10.767Z,1008.98
2018-07-24T01:39:10.751Z,1008.95
2018-07-24T01:40:10.743Z,1008.93
2018-07-24T01:41:10.700Z,1008.90
2018-07-24T01:42:10.693Z,1008.92
2018-07-24T01:43:57.148Z,1008.86
2018-07-24T01:44:57.083Z,1008.87
2018-07-24T01:46:50.911Z,1008.89
2018-07-24T01:47:50.856Z,1008.86
2018-07-24T01:48:50.851Z,1008.91
2018-07-24T01:49:50.809Z,1008.92
2018-07-24T01:50:50.783Z,1008.89
2018-07-24T01:51:50.853Z,1008.89
2018-07-24T01:52:50.739Z,1008.94
2018-07-24T01:53:50.867Z,1008.92
2018-07-24T01:54:50.701Z,1008.97
2018-07-24T01:55:50.778Z,1008.97
2018-07-24T01:56:50.667Z,1008.99
2018-07-24T01:57:51.807Z,1008.93
2018-07-24T01:58:50.639Z,1008.94
2018-07-24T01:59:51.728Z,1008.94
2018-07-24T02:00:50.577Z,1008.93
2018-07-24T02:01:51.638Z,1008.92
2018-07-24T02:02:50.563Z,1008.90
2018-07-24T02:05:08.559Z,1008.89
2018-07-24T02:06:08.500Z,1008.87
2018-07-24T02:07:08.464Z,1008.89
2018-07-24T02:08:08.454Z,1008.86
2018-07-24T02:09:08.426Z,1008.88
2018-07-24T02:10:08.397Z,1008.89
2018-07-24T02:11:08.375Z,1008.91
2018-07-24T02:12:08.395Z,1008.89
2018-07-24T02:13:08.351Z,1008.88
2018-07-24T02:14:08.325Z,1008.88
2018-07-24T02:15:09.432Z,1008.91
2018-07-24T02:16:08.286Z,1008.88
2018-07-24T02:17:08.329Z,1008.85
2018-07-24T02:18:08.253Z,1008.89
2018-07-24T02:19:08.335Z,1008.87
2018-07-24T02:20:08.180Z,1008.89
2018-07-24T02:21:08.253Z,1008.88
2018-07-24T02:22:08.141Z,1008.89
2018-07-24T02:23:08.272Z,1008.90
2018-07-24T02:24:08.098Z,1008.86
2018-07-24T02:25:08.177Z,1008.85
2018-07-24T02:26:08.075Z,1008.86
2018-07-24T02:27:08.201Z,1008.90
2018-07-24T02:28:08.017Z,1008.86
2018-07-24T02:30:06.036Z,1008.88
2018-07-24T02:31:06.016Z,1008.84
2018-07-24T02:33:00.730Z,1008.87
2018-07-24T02:34:00.685Z,1008.87
2018-07-24T02:35:00.803Z,1008.84
2018-07-24T02:36:00.655Z,1008.86
2018-07-24T02:37:00.659Z,1008.83
2018-07-24T02:38:00.592Z,1008.79
2018-07-24T02:39:00.580Z,1008.85
2018-07-24T02:40:00.556Z,1008.84
2018-07-24T02:41:00.534Z,1008.78
2018-07-24T02:42:00.522Z,1008.80
2018-07-24T02:43:00.499Z,1008.79
2018-07-24T02:44:00.621Z,1008.78
2018-07-24T02:45:00.446Z,1008.77
2018-07-24T02:46:00.532Z,1008.78
2018-07-24T02:47:00.414Z,1008.74
2018-07-24T02:48:02.495Z,1008.77
2018-07-24T02:49:00.359Z,1008.75
2018-07-24T02:51:04.048Z,1008.75
2018-07-24T02:52:03.988Z,1008.75
2018-07-24T02:53:03.962Z,1008.74
2018-07-24T02:54:03.941Z,1008.78
2018-07-24T02:55:03.933Z,1008.76
2018-07-24T02:56:03.901Z,1008.76
2018-07-24T02:57:03.886Z,1008.77
2018-07-24T02:58:03.881Z,1008.79
2018-07-24T02:59:04.005Z,1008.78
2018-07-24T03:00:03.817Z,1008.81
2018-07-24T03:01:03.910Z,1008.80
2018-07-24T03:02:03.778Z,1008.77
2018-07-24T03:03:03.928Z,1008.77
2018-07-24T03:04:03.735Z,1008.79
2018-07-24T03:05:03.835Z,1008.83
2018-07-24T03:06:03.714Z,1008.78
2018-07-24T03:07:03.758Z,1008.80
2018-07-24T03:08:03.641Z,1008.82
2018-07-24T03:09:03.777Z,1008.79
2018-07-24T03:10:03.600Z,1008.80
2018-07-24T03:11:04.705Z,1008.79
2018-07-24T03:12:03.556Z,1008.81
2018-07-24T03:13:03.685Z,1008.82
2018-07-24T03:14:03.523Z,1008.81
2018-07-24T03:15:04.629Z,1008.85
2018-07-24T03:16:03.500Z,1008.81
2018-07-24T03:17:03.614Z,1008.78
2018-07-24T03:18:03.430Z,1008.81
2018-07-24T03:19:03.520Z,1008.82
2018-07-24T03:20:05.090Z,1008.81
2018-07-24T03:21:03.536Z,1008.80
2018-07-24T03:22:03.329Z,1008.83
2018-07-24T03:23:04.470Z,1008.79
2018-07-24T03:24:03.297Z,1008.83
2018-07-24T03:25:03.355Z,1008.79
2018-07-24T03:26:03.255Z,1008.81
2018-07-24T03:27:03.371Z,1008.80
2018-07-24T03:28:03.191Z,1008.82
2018-07-24T03:29:03.285Z,1008.86
2018-07-24T03:30:03.153Z,1008.85
2018-07-24T03:31:03.288Z,1008.83
2018-07-24T03:32:03.120Z,1008.82
2018-07-24T03:33:03.207Z,1008.79
2018-07-24T03:34:03.068Z,1008.85
2018-07-24T03:35:03.227Z,1008.84
2018-07-24T03:36:03.024Z,1008.85
2018-07-24T03:37:03.125Z,1008.84
2018-07-24T03:38:02.979Z,1008.86
2018-07-24T03:39:03.139Z,1008.84
2018-07-24T03:40:02.933Z,1008.86
2018-07-24T03:41:03.059Z,1008.82
2018-07-24T03:42:54.451Z,1008.84
2018-07-24T03:43:54.416Z,1008.82
2018-07-24T03:44:54.457Z,1008.85
2018-07-24T03:45:54.362Z,1008.88
2018-07-24T03:46:54.485Z,1008.89
2018-07-24T03:47:54.328Z,1008.86
2018-07-24T03:48:54.379Z,1008.93
2018-07-24T03:49:54.274Z,1008.92
2018-07-24T03:50:54.380Z,1008.93
2018-07-24T03:51:54.235Z,1008.92
2018-07-24T03:52:54.292Z,1008.90
2018-07-24T03:53:54.193Z,1008.91
2018-07-24T03:54:54.311Z,1008.97
2018-07-24T03:55:54.152Z,1008.93
2018-07-24T03:56:54.288Z,1008.94
2018-07-24T03:58:40.463Z,1008.93
2018-07-24T03:59:40.426Z,1008.95
2018-07-24T04:00:40.395Z,1008.98
2018-07-24T04:01:40.361Z,1008.96
2018-07-24T04:02:40.366Z,1009.01
2018-07-24T04:03:40.338Z,1008.98
2018-07-24T04:04:40.291Z,1008.97
2018-07-24T04:05:40.277Z,1008.96
2018-07-24T04:06:40.260Z,1008.92
2018-07-24T04:07:40.226Z,1008.98
2018-07-24T04:08:40.231Z,1008.96
2018-07-24T04:09:40.199Z,1009.01
2018-07-24T04:10:40.170Z,1008.96
2018-07-24T04:11:40.141Z,1009.01
2018-07-24T04:12:40.121Z,1009.01
2018-07-24T04:13:40.107Z,1009.04
2018-07-24T04:14:40.084Z,1009.04
2018-07-24T04:15:40.062Z,1009.03
2018-07-24T04:16:40.036Z,1009.04
2018-07-24T04:17:40.014Z,1009.02
2018-07-24T04:18:39.992Z,1009.03
2018-07-24T04:20:26.583Z,1009.02
2018-07-24T04:21:26.550Z,1009.09
2018-07-24T04:22:26.501Z,1009.02
2018-07-24T04:23:26.481Z,1009.01
2018-07-24T04:24:26.469Z,1009.01
2018-07-24T04:25:26.454Z,1009.01
2018-07-24T04:26:26.412Z,1009.00
2018-07-24T04:27:26.429Z,1008.98
2018-07-24T04:28:26.375Z,1009.00
2018-07-24T04:29:26.444Z,1008.98
2018-07-24T04:30:26.341Z,1009.00
2018-07-24T04:31:26.468Z,1009.00
2018-07-24T04:32:26.299Z,1008.97
2018-07-24T04:33:26.373Z,1008.97
2018-07-24T04:34:26.253Z,1008.96
2018-07-24T04:35:26.281Z,1008.97
2018-07-24T04:36:26.205Z,1008.96
2018-07-24T04:37:26.298Z,1008.92
2018-07-24T04:38:26.159Z,1008.97
2018-07-24T04:39:26.208Z,1008.95
2018-07-24T04:40:26.242Z,1008.96
2018-07-24T04:41:26.237Z,1008.99
2018-07-24T04:42:26.066Z,1009.01
2018-07-24T04:43:26.343Z,1009.01
2018-07-24T04:44:26.024Z,1008.97
2018-07-24T04:45:26.043Z,1008.98
2018-07-24T04:46:25.995Z,1009.01
2018-07-24T04:47:26.061Z,1008.99
2018-07-24T04:48:25.937Z,1008.99
2018-07-24T04:49:25.977Z,1008.95
2018-07-24T04:50:25.896Z,1008.97
2018-07-24T04:51:25.976Z,1008.95
2018-07-24T04:52:25.845Z,1008.99
2018-07-24T04:53:25.897Z,1008.90
2018-07-24T04:54:25.840Z,1008.94
2018-07-24T04:55:25.905Z,1008.95
2018-07-24T04:56:25.803Z,1008.95
2018-07-24T04:57:25.864Z,1008.92
2018-07-24T04:58:25.715Z,1008.97
2018-07-24T04:59:25.833Z,1008.95
2018-07-24T05:00:25.668Z,1008.96
2018-07-24T05:01:25.769Z,1008.93
2018-07-24T05:02:25.633Z,1008.94
2018-07-24T05:03:25.658Z,1008.93
2018-07-24T05:04:25.583Z,1008.97
2018-07-24T05:06:11.932Z,1008.90
2018-07-24T05:07:11.846Z,1008.92
2018-07-24T05:08:11.830Z,1008.89
2018-07-24T05:09:11.797Z,1008.95
2018-07-24T05:10:11.901Z,1008.95
2018-07-24T05:11:11.756Z,1008.95
2018-07-24T05:12:11.732Z,1008.98
2018-07-24T05:13:11.798Z,1009.01
2018-07-24T05:14:11.672Z,1008.99
2018-07-24T05:15:11.684Z,1008.97
2018-07-24T05:16:11.723Z,1008.99
2018-07-24T05:17:11.619Z,1009.00
2018-07-24T05:18:11.762Z,1009.01
2018-07-24T05:19:11.600Z,1008.99
2018-07-24T05:20:11.651Z,1009.01
2018-07-24T05:21:11.523Z,1008.98
2018-07-24T05:22:11.575Z,1008.98
2018-07-24T05:23:11.497Z,1008.98
2018-07-24T05:24:11.568Z,1009.00
2018-07-24T05:25:11.434Z,1009.01
2018-07-24T05:26:11.488Z,1008.99
2018-07-24T05:27:11.404Z,1008.94
2018-07-24T05:28:11.571Z,1008.98
2018-07-24T05:29:11.357Z,1008.97
2018-07-24T05:30:11.405Z,1008.98
2018-07-24T05:31:11.311Z,1008.95
2018-07-24T05:32:11.537Z,1008.97
2018-07-24T05:33:11.324Z,1008.96
2018-07-24T05:34:11.330Z,1008.99
2018-07-24T05:35:11.217Z,1008.99
2018-07-24T05:36:11.357Z,1008.96
2018-07-24T05:37:11.199Z,1008.98
2018-07-24T05:38:11.256Z,1008.97
2018-07-24T05:39:11.160Z,1008.99
2018-07-24T05:40:11.169Z,1008.98
2018-07-24T05:41:11.181Z,1008.96
2018-07-24T05:42:11.351Z,1009.00
2018-07-24T05:43:11.103Z,1008.96
2018-07-24T05:44:11.181Z,1008.94
2018-07-24T05:45:11.115Z,1008.89
2018-07-24T05:46:11.122Z,1008.90
2018-07-24T05:47:10.950Z,1008.91
2018-07-24T05:48:11.019Z,1008.96
2018-07-24T05:49:10.940Z,1008.94
2018-07-24T05:50:11.054Z,1008.95
2018-07-24T05:51:10.889Z,1008.95
2018-07-24T05:52:10.950Z,1008.96
2018-07-24T05:53:10.816Z,1008.95
2018-07-24T05:54:10.970Z,1008.94
2018-07-24T05:55:10.851Z,1008.98
2018-07-24T05:56:10.888Z,1008.99
2018-07-24T05:57:10.735Z,1008.97
2018-07-24T05:58:10.789Z,1008.97
2018-07-24T05:59:10.689Z,1008.99
2018-07-24T06:00:10.800Z,1009.00
2018-07-24T06:01:10.643Z,1008.97
2018-07-24T06:02:10.711Z,1009.00
2018-07-24T06:03:10.603Z,1008.96
2018-07-24T06:04:10.721Z,1008.97
2018-07-24T06:05:10.564Z,1008.99
2018-07-24T06:07:06.142Z,1008.98
2018-07-24T06:08:06.080Z,1008.98
2018-07-24T06:09:06.051Z,1008.99
2018-07-24T06:10:06.028Z,1009.04
2018-07-24T06:11:06.033Z,1008.99
2018-07-24T06:12:05.982Z,1008.99
2018-07-24T06:13:05.983Z,1008.98
2018-07-24T06:14:05.938Z,1008.99
2018-07-24T06:15:06.010Z,1009.01
2018-07-24T06:16:05.925Z,1009.04
2018-07-24T06:17:05.936Z,1008.99
2018-07-24T06:18:05.853Z,1009.03
2018-07-24T06:19:05.822Z,1008.98
2018-07-24T06:20:05.935Z,1009.05
2018-07-24T06:21:05.798Z,1009.02
2018-07-24T06:22:05.907Z,1009.07
2018-07-24T06:23:05.735Z,1009.04
2018-07-24T06:24:05.827Z,1009.06
2018-07-24T06:25:05.702Z,1009.06
2018-07-24T06:26:05.757Z,1009.03
2018-07-24T06:27:05.644Z,1009.09
2018-07-24T06:28:05.725Z,1009.05
2018-07-24T06:29:05.599Z,1009.06
2018-07-24T06:30:05.666Z,1009.07
2018-07-24T06:31:05.567Z,1009.10
2018-07-24T06:32:05.654Z,1009.12
2018-07-24T06:33:05.530Z,1009.11
2018-07-24T06:34:05.569Z,1009.09
2018-07-24T06:35:05.490Z,1009.09
2018-07-24T06:36:05.583Z,1009.07
2018-07-24T06:37:05.441Z,1008.99
2018-07-24T06:38:05.491Z,1008.96
2018-07-24T06:39:05.381Z,1008.99
2018-07-24T06:40:06.434Z,1009.00
2018-07-24T06:41:05.337Z,1009.00
2018-07-24T06:42:05.435Z,1009.03
2018-07-24T06:43:05.293Z,1009.01
2018-07-24T06:44:05.327Z,1008.98
2018-07-24T06:45:05.254Z,1008.98
2018-07-24T06:46:05.355Z,1008.98
2018-07-24T06:47:05.208Z,1008.94
2018-07-24T06:48:05.197Z,1008.99
2018-07-24T06:49:51.438Z,1009.00
2018-07-24T06:50:51.448Z,1009.03
2018-07-24T06:51:51.381Z,1009.05
2018-07-24T06:52:51.549Z,1009.05
2018-07-24T06:53:51.333Z,1009.06
2018-07-24T06:54:51.372Z,1009.02
2018-07-24T06:55:51.271Z,1009.04
2018-07-24T06:56:51.401Z,1009.09
2018-07-24T06:57:51.237Z,1009.06
2018-07-24T06:58:51.209Z,1009.04
2018-07-24T06:59:51.306Z,1009.04
2018-07-24T07:00:51.163Z,1009.05
2018-07-24T07:01:51.255Z,1009.03
2018-07-24T07:02:51.134Z,1009.02
2018-07-24T07:03:51.265Z,1009.02
2018-07-24T07:04:51.078Z,1009.04
2018-07-24T07:05:51.179Z,1009.03
2018-07-24T07:06:51.057Z,1008.97
2018-07-24T07:07:51.195Z,1008.96
2018-07-24T07:08:50.997Z,1008.94
2018-07-24T07:09:51.024Z,1008.98
2018-07-24T07:10:50.939Z,1008.92
2018-07-24T07:11:51.023Z,1008.89
2018-07-24T07:12:50.915Z,1008.90
2018-07-24T07:13:51.038Z,1008.89
2018-07-24T07:14:50.854Z,1008.89
2018-07-24T07:15:50.955Z,1008.90
2018-07-24T07:16:50.814Z,1008.89
2018-07-24T07:17:50.956Z,1008.90
2018-07-24T07:18:50.775Z,1008.89
2018-07-24T07:19:50.883Z,1008.91
2018-07-24T07:20:50.735Z,1008.90
2018-07-24T07:21:50.897Z,1008.89
2018-07-24T07:22:50.680Z,1008.87
2018-07-24T07:23:50.801Z,1008.93
2018-07-24T07:24:50.639Z,1008.89
2018-07-24T07:25:50.710Z,1008.91
2018-07-24T07:26:50.583Z,1008.89
2018-07-24T07:27:50.634Z,1008.90
2018-07-24T07:28:50.568Z,1008.86
2018-07-24T07:29:50.629Z,1008.86
2018-07-24T07:30:50.503Z,1008.86
2018-07-24T07:31:50.550Z,1008.82
2018-07-24T07:32:50.447Z,1008.82
2018-07-24T07:33:50.492Z,1008.84
2018-07-24T07:34:50.407Z,1008.84
2018-07-24T07:35:50.480Z,1008.79
2018-07-24T07:36:50.387Z,1008.79
2018-07-24T07:37:50.376Z,1008.76
2018-07-24T07:38:50.316Z,1008.76
2018-07-24T07:39:50.390Z,1008.76
2018-07-24T07:40:50.288Z,1008.73
2018-07-24T07:41:50.305Z,1008.76
2018-07-24T07:42:50.219Z,1008.74
2018-07-24T07:43:50.374Z,1008.74
2018-07-24T07:44:50.193Z,1008.74
2018-07-24T07:45:50.243Z,1008.77
2018-07-24T07:46:50.143Z,1008.79
2018-07-24T07:47:50.138Z,1008.75
2018-07-24T07:48:50.093Z,1008.78
2018-07-24T07:49:51.167Z,1008.76
2018-07-24T07:50:50.052Z,1008.71
2018-07-24T07:51:50.061Z,1008.76
2018-07-24T07:52:50.033Z,1008.77
2018-07-24T07:53:50.093Z,1008.74
2018-07-24T07:54:49.966Z,1008.73
2018-07-24T07:55:49.988Z,1008.75
2018-07-24T07:56:49.923Z,1008.75
2018-07-24T07:57:50.016Z,1008.72
2018-07-24T07:59:35.849Z,1008.76
2018-07-24T08:00:35.888Z,1008.72
2018-07-24T08:01:35.803Z,1008.71
2018-07-24T08:02:35.846Z,1008.68
2018-07-24T08:03:35.753Z,1008.72
2018-07-24T08:04:35.799Z,1008.70
2018-07-24T08:05:35.706Z,1008.70
2018-07-24T08:06:35.718Z,1008.69
2018-07-24T08:07:35.660Z,1008.70
2018-07-24T08:08:35.741Z,1008.66
2018-07-24T08:09:35.614Z,1008.69
2018-07-24T08:10:35.667Z,1008.67
2018-07-24T08:11:35.582Z,1008.72
2018-07-24T08:12:35.652Z,1008.69
2018-07-24T08:13:35.553Z,1008.70
2018-07-24T08:14:35.562Z,1008.73
2018-07-24T08:15:35.526Z,1008.70
2018-07-24T08:16:35.579Z,1008.69
2018-07-24T08:17:35.492Z,1008.71
2018-07-24T08:18:35.512Z,1008.67
2018-07-24T08:19:35.410Z,1008.70
2018-07-24T08:20:35.400Z,1008.69
2018-07-24T08:21:35.356Z,1008.66
2018-07-24T08:22:35.412Z,1008.63
2018-07-24T08:23:35.311Z,1008.65
2018-07-24T08:24:35.316Z,1008.64
2018-07-24T08:25:35.264Z,1008.65
2018-07-24T08:26:35.337Z,1008.63
2018-07-24T08:27:35.227Z,1008.65
2018-07-24T08:28:35.263Z,1008.61
2018-07-24T08:29:35.184Z,1008.59
2018-07-24T08:30:35.256Z,1008.59
2018-07-24T08:31:35.132Z,1008.61
2018-07-24T08:32:35.166Z,1008.60
2018-07-24T08:33:35.139Z,1008.58
2018-07-24T08:34:35.181Z,1008.58
2018-07-24T08:35:35.049Z,1008.61
2018-07-24T08:36:35.311Z,1008.64
2018-07-24T08:37:35.013Z,1008.64
2018-07-24T08:38:35.006Z,1008.66
2018-07-24T08:39:34.979Z,1008.63
2018-07-24T08:40:35.018Z,1008.67
2018-07-24T08:41:34.913Z,1008.68
2018-07-24T08:42:34.954Z,1008.66
2018-07-24T08:43:34.893Z,1008.69
2018-07-24T08:44:34.987Z,1008.65
2018-07-24T08:45:34.836Z,1008.63
2018-07-24T08:46:34.852Z,1008.66
2018-07-24T08:47:34.781Z,1008.66
2018-07-24T08:48:34.905Z,1008.62
2018-07-24T08:49:34.737Z,1008.66
2018-07-24T08:50:34.780Z,1008.63
2018-07-24T08:51:34.682Z,1008.59
2018-07-24T08:52:34.874Z,1008.58
2018-07-24T08:53:34.865Z,1008.56
2018-07-24T08:54:34.864Z,1008.57
2018-07-24T08:55:34.984Z,1008.56
2018-07-24T08:56:34.635Z,1008.58
2018-07-24T08:58:38.283Z,1008.57
2018-07-24T08:59:38.321Z,1008.57
2018-07-24T09:00:38.257Z,1008.52
2018-07-24T09:01:38.224Z,1008.51
2018-07-24T09:02:38.188Z,1008.46
2018-07-24T09:03:38.262Z,1008.46
2018-07-24T09:04:38.142Z,1008.46
2018-07-24T09:05:38.149Z,1008.46
2018-07-24T09:06:38.101Z,1008.49
2018-07-24T09:07:38.170Z,1008.46
2018-07-24T09:08:38.056Z,1008.49
2018-07-24T09:09:38.086Z,1008.49
2018-07-24T09:10:38.020Z,1008.49
2018-07-24T09:11:43.816Z,1008.46
2018-07-24T09:12:37.966Z,1008.48
2018-07-24T09:13:38.002Z,1008.48
2018-07-24T09:14:37.917Z,1008.48
2018-07-24T09:15:38.026Z,1008.50
2018-07-24T09:16:37.875Z,1008.49
2018-07-24T09:17:37.925Z,1008.47
2018-07-24T09:18:37.845Z,1008.48
2018-07-24T09:19:37.830Z,1008.54
2018-07-24T09:20:37.809Z,1008.49
2018-07-24T09:21:37.902Z,1008.50
2018-07-24T09:22:37.742Z,1008.54
2018-07-24T09:23:37.811Z,1008.48
2018-07-24T09:24:37.698Z,1008.53
2018-07-24T09:25:37.828Z,1008.53
2018-07-24T09:26:37.655Z,1008.49
2018-07-24T09:27:37.698Z,1008.48
2018-07-24T09:28:37.601Z,1008.49
2018-07-24T09:29:38.669Z,1008.45
2018-07-24T09:30:37.566Z,1008.52
2018-07-24T09:31:37.657Z,1008.49
2018-07-24T09:32:37.521Z,1008.52
2018-07-24T09:33:38.598Z,1008.52
2018-07-24T09:34:37.473Z,1008.47
2018-07-24T09:35:37.582Z,1008.48
2018-07-24T09:36:37.438Z,1008.42
2018-07-24T09:37:37.543Z,1008.46
2018-07-24T09:38:37.404Z,1008.42
2018-07-24T09:39:37.564Z,1008.46
2018-07-24T09:40:37.351Z,1008.41
2018-07-24T09:41:37.470Z,1008.44
2018-07-24T09:42:37.316Z,1008.42
2018-07-24T09:43:37.477Z,1008.42
2018-07-24T09:44:37.252Z,1008.37
2018-07-24T09:45:37.395Z,1008.39
2018-07-24T09:46:37.212Z,1008.39
2018-07-24T09:47:37.404Z,1008.37
2018-07-24T09:48:37.186Z,1008.35
2018-07-24T09:49:37.318Z,1008.39
2018-07-24T09:50:37.225Z,1008.34
2018-07-24T09:51:37.328Z,1008.36
2018-07-24T09:52:37.114Z,1008.40
2018-07-24T09:53:37.246Z,1008.42
2018-07-24T09:54:37.053Z,1008.44
2018-07-24T09:55:37.174Z,1008.46
2018-07-24T09:56:29.601Z,1008.39
2018-07-24T09:57:29.591Z,1008.41
2018-07-24T09:58:29.557Z,1008.35
2018-07-24T09:59:30.636Z,1008.42
2018-07-24T10:00:29.453Z,1008.35
2018-07-24T10:01:29.603Z,1008.33
2018-07-24T10:02:29.408Z,1008.36
2018-07-24T10:03:29.520Z,1008.37
2018-07-24T10:04:29.371Z,1008.36
2018-07-24T10:05:29.554Z,1008.35
2018-07-24T10:06:29.330Z,1008.34
2018-07-24T10:07:29.418Z,1008.35
2018-07-24T10:08:29.282Z,1008.34
2018-07-24T10:09:29.429Z,1008.30
2018-07-24T10:10:29.243Z,1008.36
2018-07-24T10:11:29.342Z,1008.32
2018-07-24T10:12:29.200Z,1008.24
2018-07-24T10:13:29.444Z,1008.22
2018-07-24T10:14:29.151Z,1008.27
2018-07-24T10:15:30.294Z,1008.23
2018-07-24T10:16:29.156Z,1008.23
2018-07-24T10:17:29.281Z,1008.22
2018-07-24T10:18:29.071Z,1008.23
2018-07-24T10:19:29.187Z,1008.21
2018-07-24T10:20:29.052Z,1008.18
2018-07-24T10:21:29.205Z,1008.18
2018-07-24T10:22:28.986Z,1008.20
2018-07-24T10:23:29.032Z,1008.14
2018-07-24T10:24:28.987Z,1008.15
2018-07-24T10:25:28.938Z,1008.16
2018-07-24T10:26:28.905Z,1008.17
2018-07-24T10:27:28.951Z,1008.16
2018-07-24T10:28:28.855Z,1008.16
2018-07-24T10:29:28.870Z,1008.12
2018-07-24T10:30:28.859Z,1008.17
2018-07-24T10:31:28.876Z,1008.10
2018-07-24T10:32:28.765Z,1008.09
2018-07-24T10:33:28.789Z,1008.12
2018-07-24T10:34:28.745Z,1008.09
2018-07-24T10:35:28.814Z,1008.09
2018-07-24T10:36:28.708Z,1008.05
2018-07-24T10:37:28.725Z,1008.05
2018-07-24T10:38:28.649Z,1008.04
2018-07-24T10:39:28.745Z,1008.08
2018-07-24T10:40:28.602Z,1008.03
2018-07-24T10:41:28.640Z,1008.00
2018-07-24T10:42:28.559Z,1008.03
2018-07-24T10:43:28.650Z,1008.00
2018-07-24T10:44:28.506Z,1008.01
2018-07-24T10:45:28.552Z,1007.96
2018-07-24T10:46:28.485Z,1007.98
2018-07-24T10:47:28.471Z,1007.93
2018-07-24T10:48:28.432Z,1007.93
2018-07-24T10:49:28.484Z,1007.92
2018-07-24T10:50:28.388Z,1007.89
2018-07-24T10:51:28.410Z,1007.87
2018-07-24T10:52:28.360Z,1007.87
2018-07-24T10:53:28.400Z,1007.88
2018-07-24T10:54:28.300Z,1007.92
2018-07-24T10:55:28.331Z,1007.90
2018-07-24T10:56:28.261Z,1007.89
2018-07-24T10:57:28.337Z,1007.90
2018-07-24T10:58:28.219Z,1007.87
2018-07-24T10:59:28.271Z,1007.87
2018-07-24T11:00:28.180Z,1007.90
2018-07-24T11:01:28.256Z,1007.88
2018-07-24T11:02:28.131Z,1007.83
2018-07-24T11:03:28.162Z,1007.83
2018-07-24T11:04:28.084Z,1007.85
2018-07-24T11:05:28.183Z,1007.85
2018-07-24T11:06:28.055Z,1007.86
2018-07-24T11:08:14.179Z,1007.86
2018-07-24T11:09:14.191Z,1007.81
2018-07-24T11:10:14.088Z,1007.81
2018-07-24T11:11:14.182Z,1007.83
2018-07-24T11:12:14.086Z,1007.81
2018-07-24T11:13:14.095Z,1007.83
2018-07-24T11:14:14.012Z,1007.85
2018-07-24T11:15:14.016Z,1007.86
2018-07-24T11:16:13.968Z,1007.81
2018-07-24T11:17:14.034Z,1007.80
2018-07-24T11:18:13.934Z,1007.75
2018-07-24T11:19:13.933Z,1007.77
2018-07-24T11:20:13.891Z,1007.78
2018-07-24T11:21:13.941Z,1007.80
2018-07-24T11:22:13.937Z,1007.75
2018-07-24T11:23:14.013Z,1007.69
2018-07-24T11:24:13.838Z,1007.69
2018-07-24T11:25:13.867Z,1007.68
2018-07-24T11:26:13.770Z,1007.71
2018-07-24T11:27:13.802Z,1007.72
2018-07-24T11:28:13.760Z,1007.70
2018-07-24T11:29:13.795Z,1007.67
2018-07-24T11:30:13.680Z,1007.61
2018-07-24T11:31:13.703Z,1007.67
2018-07-24T11:32:13.640Z,1007.62
2018-07-24T11:33:13.730Z,1007.61
2018-07-24T11:34:13.612Z,1007.62
2018-07-24T11:35:13.631Z,1007.59
2018-07-24T11:36:13.583Z,1007.60
2018-07-24T11:37:14.575Z,1007.54
2018-07-24T11:38:13.515Z,1007.58
2018-07-24T11:39:13.559Z,1007.57
2018-07-24T11:40:13.490Z,1007.56
2018-07-24T11:41:13.561Z,1007.57
2018-07-24T11:42:13.440Z,1007.52
2018-07-24T11:43:13.486Z,1007.55
2018-07-24T11:44:13.460Z,1007.55
2018-07-24T11:45:13.488Z,1007.55
2018-07-24T11:46:13.350Z,1007.54
2018-07-24T11:47:13.389Z,1007.55
2018-07-24T11:48:13.308Z,1007.50
2018-07-24T11:49:13.309Z,1007.51
2018-07-24T11:50:59.158Z,1007.52
2018-07-24T11:51:59.131Z,1007.48
2018-07-24T11:53:01.149Z,1007.49
2018-07-24T11:53:59.086Z,1007.48
2018-07-24T11:54:59.110Z,1007.43
2018-07-24T11:55:59.061Z,1007.43
2018-07-24T11:56:59.138Z,1007.45
2018-07-24T11:57:59.003Z,1007.41
2018-07-24T11:58:59.029Z,1007.39
2018-07-24T11:59:58.985Z,1007.39
2018-07-24T12:00:59.043Z,1007.37
2018-07-24T12:01:58.940Z,1007.36
2018-07-24T12:02:58.950Z,1007.34
2018-07-24T12:03:58.896Z,1007.36
2018-07-24T12:04:58.969Z,1007.37
2018-07-24T12:05:58.867Z,1007.32
2018-07-24T12:06:58.878Z,1007.29
2018-07-24T12:07:58.869Z,1007.30
2018-07-24T12:08:58.891Z,1007.29
2018-07-24T12:09:58.783Z,1007.31
2018-07-24T12:10:58.795Z,1007.29
2018-07-24T12:11:58.774Z,1007.29
2018-07-24T12:12:58.830Z,1007.31
2018-07-24T12:13:58.694Z,1007.32
2018-07-24T12:14:58.837Z,1007.25
2018-07-24T12:15:58.658Z,1007.25
2018-07-24T12:16:58.737Z,1007.26
2018-07-24T12:17:58.616Z,1007.25
2018-07-24T12:18:58.694Z,1007.24